Time;durP1;ratioP1;P1;durP2;ratioP2;P2;SDS_P1;SDS_P2;PMS_P1;PMS_P2;Temp;Humidity;BMP_temperature;BMP_pressure;BME280_temperature;BME280_humidity;BME280_pressure;Samples;Min_cycle;Max_cycle;Signal;HPM_P1;HPM_P2
2022/04/14 00:01:12;;;;;;;;;;;12.60;99.90;;;12.28;83.11;97182.16;5050549;28;19971;-61
2022/04/14 00:03:40;;;;;;;;;;;12.50;99.90;;;12.22;83.59;97185.94;5050166;28;20572;-62
2022/04/14 00:06:06;;;;;;;;;;;12.50;99.90;;;12.21;83.30;97186.00;5048719;28;20410;-60
2022/04/14 00:08:31;;;;;;;;;;;12.50;99.90;;;12.22;83.08;97187.69;5046183;28;19912;-61
2022/04/14 00:10:57;;;;;;;;;;;12.40;99.90;;;12.25;82.64;97184.91;5048262;28;19967;-60
2022/04/14 00:13:23;;;;;;;;;;;12.50;99.90;;;12.27;82.44;97172.47;5047196;28;20063;-61
2022/04/14 00:15:48;;;;;;;;;;;12.50;99.90;;;12.28;83.02;97176.84;5046651;28;20009;-59
2022/04/14 00:18:14;;;;;;;;;;;12.60;99.90;;;12.24;83.85;97183.22;5043718;28;20380;-59
2022/04/14 00:20:39;;;;;;;;;;;12.50;99.90;;;12.00;84.59;97166.72;5049915;28;20271;-61
2022/04/14 00:23:05;;;;;;;;;;;12.50;99.90;;;12.05;85.63;97190.28;5049677;28;19969;-61
2022/04/14 00:25:30;;;;;;;;;;;12.40;99.90;;;11.96;86.68;97186.28;5046971;28;20023;-61
2022/04/14 00:27:56;;;;;;;;;;;12.30;99.90;;;11.87;87.38;97182.25;5046925;28;19970;-59
2022/04/14 00:30:22;;;;;;;;;;;12.20;99.90;;;11.77;88.33;97181.81;5053679;28;19993;-59
2022/04/14 00:32:47;;;;;;;;;;;12.10;99.90;;;11.82;87.45;97189.53;5051477;28;20376;-60
2022/04/14 00:35:13;;;;;;;;;;;12.10;99.90;;;11.89;86.55;97190.94;5052216;28;19920;-60
2022/04/14 00:37:39;;;;;;;;;;;12.20;99.90;;;11.96;85.65;97188.94;5047584;28;19917;-60
2022/04/14 00:40:05;;;;;;;;;;;12.20;99.90;;;11.97;85.55;97191.50;5053203;28;20392;-60
2022/04/14 00:42:31;;;;;;;;;;;12.20;99.90;;;11.97;84.86;97191.50;5051758;28;19916;-60
2022/04/14 00:44:57;;;;;;;;;;;12.20;99.90;;;11.96;85.24;97195.06;5054059;28;20368;-60
2022/04/14 00:47:22;;;;;;;;;;;12.20;99.90;;;11.92;85.55;97198.78;5050524;28;20062;-58
2022/04/14 00:49:48;;;;;;;;;;;12.20;99.90;;;11.82;85.79;97189.53;5054124;28;20014;-59
2022/04/14 00:52:14;;;;;;;;;;;12.20;99.90;;;11.83;86.05;97201.81;5053983;28;19943;-59
2022/04/14 00:54:40;;;;;;;;;;;12.20;99.90;;;11.79;86.09;97202.84;5053308;28;19932;-59
2022/04/14 00:57:06;;;;;;;;;;;12.20;99.90;;;11.76;86.10;97210.94;5046349;28;19913;-59
2022/04/14 00:59:31;;;;;;;;;;;12.10;99.90;;;11.72;86.34;97211.97;5053381;28;19952;-59
2022/04/14 01:01:58;;;;;;;;;;;12.00;99.90;;;11.68;86.54;97207.78;5047389;28;19971;-60
2022/04/14 01:04:24;;;;;;;;;;;12.00;99.90;;;11.67;86.65;97208.72;5054268;28;19917;-59
2022/04/14 01:06:50;;;;;;;;;;;12.00;99.90;;;11.67;86.53;97200.78;5054442;28;19916;-60
2022/04/14 01:09:19;;;;;;;;;;;12.00;99.90;;;11.62;86.23;97188.63;5049194;28;19920;-60
2022/04/14 01:11:47;;;;;;;;;;;12.00;99.90;;;11.71;85.96;97200.56;5049661;28;19921;-60
2022/04/14 01:14:29;;;;;;;;;;;12.00;99.90;;;11.77;85.32;97202.06;5052526;28;19925;-60
2022/04/14 01:16:57;;;;;;;;;;;12.00;99.90;;;11.80;84.45;97204.59;5084343;22;19932;-48
2022/04/14 01:19:23;;;;;;;;;;;12.10;99.90;;;11.83;84.18;97205.31;5075773;28;19931;-49
2022/04/14 01:22:28;;;;;;;;;;;12.10;99.90;;;11.84;84.06;97208.78;5077220;28;19962;-46
2022/04/14 01:24:56;;;;;;;;;;;12.10;99.90;;;11.87;84.07;97213.09;5070068;28;20639;-47
2022/04/14 01:27:25;;;;;;;;;;;12.20;99.90;;;11.85;83.83;97211.38;5072147;28;21320;-49
2022/04/14 01:29:51;;;;;;;;;;;12.20;99.90;;;11.85;83.64;97210.53;5075263;28;19989;-47
2022/04/14 01:32:19;;;;;;;;;;;12.20;99.90;;;11.87;83.53;97213.09;5074545;28;20411;-49
2022/04/14 01:34:45;;;;;;;;;;;12.20;99.90;;;11.90;83.05;97221.78;5078139;28;19920;-48
2022/04/14 01:37:10;;;;;;;;;;;12.20;99.90;;;11.90;82.92;97218.22;5070963;28;19916;-46
2022/04/14 01:39:36;;;;;;;;;;;12.20;99.90;;;11.96;82.10;97218.84;5076583;28;19943;-49
2022/04/14 01:42:02;;;;;;;;;;;12.20;99.90;;;11.91;82.44;97218.19;5077790;28;20283;-51
2022/04/14 01:44:27;;;;;;;;;;;12.20;99.90;;;11.85;82.88;97216.66;5078438;28;20445;-51
2022/04/14 01:46:53;;;;;;;;;;;12.30;99.90;;;11.84;82.74;97219.38;5077205;28;19924;-51
2022/04/14 01:49:18;;;;;;;;;;;12.20;99.90;;;11.84;83.18;97222.88;5075132;28;19920;-48
2022/04/14 01:51:44;;;;;;;;;;;12.30;99.90;;;11.81;83.51;97236.22;5076696;28;20313;-49
2022/04/14 01:54:10;;;;;;;;;;;12.20;99.90;;;11.81;83.71;97225.66;5076273;28;20498;-47
2022/04/14 01:56:35;;;;;;;;;;;12.20;99.90;;;11.80;84.01;97228.38;5073266;28;20351;-49
2022/04/14 01:59:01;;;;;;;;;;;12.20;99.90;;;11.91;84.50;97230.56;5076560;28;19952;-47
2022/04/14 02:01:26;;;;;;;;;;;12.20;99.90;;;11.81;84.39;97236.22;5073274;28;20003;-53
2022/04/14 02:03:52;;;;;;;;;;;12.20;99.90;;;11.83;85.59;97241.44;5074891;28;19938;-46
2022/04/14 02:06:18;;;;;;;;;;;12.20;99.90;;;11.77;85.60;97241.69;5063667;28;20327;-49
2022/04/14 02:08:44;;;;;;;;;;;12.20;99.90;;;11.73;85.78;97248.06;5073207;28;20434;-49
2022/04/14 02:11:13;;;;;;;;;;;12.20;99.90;;;11.67;86.31;97243.91;5076119;28;19920;-47
2022/04/14 02:13:39;;;;;;;;;;;12.10;99.90;;;11.59;87.22;97244.25;5072566;28;19920;-48
2022/04/14 02:16:05;;;;;;;;;;;12.00;99.90;;;11.68;89.37;97253.53;5073329;28;19931;-47
2022/04/14 02:18:31;;;;;;;;;;;12.00;99.90;;;11.61;89.73;97249.44;5075554;28;20208;-47
2022/04/14 02:20:56;;;;;;;;;;;12.00;99.90;;;11.55;90.05;97252.34;5072920;28;19923;-47
2022/04/14 02:23:22;;;;;;;;;;;11.90;99.90;;;11.46;90.57;97248.31;5074790;28;20378;-52
2022/04/14 02:25:48;;;;;;;;;;;11.90;99.90;;;11.38;92.07;97248.66;5074901;28;19963;-50
2022/04/14 02:28:14;;;;;;;;;;;11.80;99.90;;;11.39;94.04;97257.44;5074715;28;20363;-49
2022/04/14 02:30:40;;;;;;;;;;;11.80;99.90;;;11.34;94.05;97259.41;5079145;28;19999;-46
2022/04/14 02:33:05;;;;;;;;;;;11.80;99.90;;;11.27;94.47;97256.19;5073110;28;19927;-50
2022/04/14 02:35:31;;;;;;;;;;;11.70;99.90;;;11.21;94.80;97245.88;5073771;28;20323;-48
2022/04/14 02:37:57;;;;;;;;;;;11.70;99.90;;;11.12;95.52;97249.75;5073313;28;20442;-49
2022/04/14 02:40:24;;;;;;;;;;;11.60;99.90;;;11.15;96.21;97257.53;5075115;28;19931;-47
2022/04/14 02:42:50;;;;;;;;;;;11.60;99.90;;;11.15;97.64;97260.19;5074409;28;19946;-47
2022/04/14 02:45:16;;;;;;;;;;;11.60;99.90;;;11.17;97.53;97265.41;5074215;28;19924;-50
2022/04/14 02:47:41;;;;;;;;;;;11.60;99.90;;;11.21;97.62;97259.06;5074025;28;19935;-48
2022/04/14 02:50:07;;;;;;;;;;;11.60;99.90;;;11.20;97.51;97268.78;5072949;28;19928;-47
2022/04/14 02:52:33;;;;;;;;;;;11.70;99.90;;;11.23;97.98;97268.66;5070072;28;20004;-47
2022/04/14 02:54:59;;;;;;;;;;;11.70;99.90;;;11.23;98.07;97266.03;5072405;28;19924;-47
2022/04/14 02:57:24;;;;;;;;;;;11.60;99.90;;;11.34;99.54;97264.69;5070720;28;19930;-48
2022/04/14 02:59:50;;;;;;;;;;;11.70;99.90;;;11.36;99.05;97266.34;5075215;28;20367;-47
2022/04/14 03:02:15;;;;;;;;;;;11.80;99.90;;;11.16;98.93;97237.28;5071529;28;20348;-49
2022/04/14 03:04:41;;;;;;;;;;;11.80;99.90;;;11.31;99.54;97273.59;5073097;28;19928;-48
2022/04/14 03:07:07;;;;;;;;;;;11.70;99.90;;;11.27;100.00;97264.09;5069946;28;20378;-47
2022/04/14 03:09:32;;;;;;;;;;;11.70;99.90;;;11.23;100.00;97271.28;5073972;28;20011;-47
2022/04/14 03:11:58;;;;;;;;;;;11.70;99.90;;;11.22;100.00;97266.94;5071839;28;19924;-47
2022/04/14 03:14:24;;;;;;;;;;;11.60;99.90;;;11.16;100.00;97272.47;5069437;28;20279;-48
2022/04/14 03:16:49;;;;;;;;;;;11.60;99.90;;;11.08;100.00;97271.91;5068913;28;19930;-49
2022/04/14 03:19:15;;;;;;;;;;;11.50;99.90;;;10.96;100.00;97243.38;5072664;28;20387;-47
2022/04/14 03:21:41;;;;;;;;;;;11.50;99.90;;;11.13;100.00;97264.66;5069028;28;19924;-47
2022/04/14 03:24:06;;;;;;;;;;;11.50;99.90;;;11.21;100.00;97277.53;5072254;28;19947;-47
2022/04/14 03:26:32;;;;;;;;;;;11.50;99.90;;;11.15;100.00;97264.63;5065617;28;20426;-48
2022/04/14 03:28:57;;;;;;;;;;;11.60;99.90;;;11.29;100.00;97278.09;5070791;28;20403;-50
2022/04/14 03:31:23;;;;;;;;;;;11.60;99.90;;;11.19;100.00;97274.13;5072087;28;19920;-49
2022/04/14 03:33:49;;;;;;;;;;;11.60;99.90;;;11.15;100.00;97276.03;5071384;28;19935;-51
2022/04/14 03:36:14;;;;;;;;;;;11.50;99.90;;;10.88;100.00;97233.16;5072843;28;19973;-49
2022/04/14 03:38:40;;;;;;;;;;;11.50;99.90;;;11.06;100.00;97274.63;5069242;28;20030;-46
2022/04/14 03:41:07;;;;;;;;;;;11.50;99.90;;;10.97;100.00;97274.16;5072109;28;19924;-47
2022/04/14 03:43:33;;;;;;;;;;;11.40;99.90;;;10.99;100.00;97282.84;5071603;28;20746;-49
2022/04/14 03:45:59;;;;;;;;;;;11.40;99.90;;;10.92;100.00;97282.22;5069370;28;19921;-53
2022/04/14 03:48:24;;;;;;;;;;;11.30;99.90;;;10.85;100.00;97286.88;5067713;28;19924;-50
2022/04/14 03:50:50;;;;;;;;;;;11.30;99.90;;;10.80;100.00;97291.50;5070665;28;19964;-50
2022/04/14 03:53:17;;;;;;;;;;;11.20;99.90;;;10.76;100.00;97287.25;5074766;28;20380;-50
2022/04/14 03:55:43;;;;;;;;;;;11.20;99.90;;;10.70;100.00;97290.16;5070071;28;19971;-49
2022/04/14 03:58:08;;;;;;;;;;;11.10;99.90;;;10.60;100.00;97272.97;5069318;28;20007;-50
2022/04/14 04:00:34;;;;;;;;;;;11.10;99.90;;;10.74;100.00;97286.47;5066718;28;20328;-49
2022/04/14 04:03:00;;;;;;;;;;;11.10;99.90;;;10.68;100.00;97284.94;5072557;28;19939;-50
2022/04/14 04:05:25;;;;;;;;;;;11.10;99.90;;;10.63;100.00;97281.59;5069788;28;19924;-49
2022/04/14 04:07:51;;;;;;;;;;;11.10;99.90;;;10.76;100.00;97291.69;5076435;28;19924;-50
2022/04/14 04:10:16;;;;;;;;;;;11.10;99.90;;;10.79;100.00;97281.00;5074576;28;19985;-51
2022/04/14 04:12:42;;;;;;;;;;;11.20;99.90;;;10.75;100.00;97290.84;5075751;28;20448;-51
2022/04/14 04:15:08;;;;;;;;;;;11.10;99.90;;;10.70;100.00;97288.34;5069143;28;20036;-49
2022/04/14 04:17:33;;;;;;;;;;;11.10;99.90;;;10.62;100.00;97277.28;5076195;28;20391;-49
2022/04/14 04:19:59;;;;;;;;;;;11.10;99.90;;;10.56;100.00;97288.03;5075024;28;19942;-48
2022/04/14 04:22:25;;;;;;;;;;;11.00;99.90;;;10.53;100.00;97295.22;5075807;28;19947;-51
2022/04/14 04:24:50;;;;;;;;;;;11.00;99.90;;;10.45;100.00;97280.53;5074577;28;19970;-51
2022/04/14 04:27:16;;;;;;;;;;;10.90;99.90;;;10.49;100.00;97290.03;5070537;28;20087;-50
2022/04/14 04:29:41;;;;;;;;;;;10.90;99.90;;;10.48;100.00;97293.63;5078105;28;20399;-49
2022/04/14 04:32:08;;;;;;;;;;;10.90;99.90;;;10.49;100.00;97299.75;5074212;28;19924;-49
2022/04/14 04:34:33;;;;;;;;;;;10.90;99.90;;;10.41;100.00;97292.13;5077007;28;20140;-53
2022/04/14 04:36:59;;;;;;;;;;;10.90;99.90;;;10.41;100.00;97305.31;5075283;28;19924;-50
2022/04/14 04:39:24;;;;;;;;;;;10.80;99.90;;;10.36;100.00;97301.13;5071903;28;20380;-49
2022/04/14 04:41:50;;;;;;;;;;;10.80;99.90;;;10.31;100.00;97310.06;5075712;28;20090;-47
2022/04/14 04:44:16;;;;;;;;;;;10.80;99.90;;;10.38;100.00;97307.19;5079725;28;19919;-51
2022/04/14 04:46:41;;;;;;;;;;;10.80;99.90;;;10.37;100.00;97308.97;5075208;28;19924;-50
2022/04/14 04:49:07;;;;;;;;;;;10.80;99.90;;;10.39;100.00;97319.44;5079237;28;19924;-50
2022/04/14 04:51:32;;;;;;;;;;;10.80;99.90;;;10.39;100.00;97315.06;5075010;28;20028;-49
2022/04/14 04:53:58;;;;;;;;;;;10.80;99.90;;;10.47;100.00;97312.13;5078468;28;19932;-47
2022/04/14 04:56:24;;;;;;;;;;;10.90;99.90;;;10.49;100.00;97318.19;5078724;28;20333;-48
2022/04/14 04:58:49;;;;;;;;;;;10.90;99.90;;;10.46;100.00;97315.66;5076437;28;19920;-49
2022/04/14 05:01:15;;;;;;;;;;;10.90;99.90;;;10.53;100.00;97322.44;5075447;28;19916;-49
2022/04/14 05:03:41;;;;;;;;;;;11.00;99.90;;;10.58;100.00;97325.75;5078005;28;19946;-51
2022/04/14 05:06:07;;;;;;;;;;;11.00;99.90;;;10.65;100.00;97332.50;5077132;28;20379;-49
2022/04/14 05:08:32;;;;;;;;;;;11.10;99.90;;;10.75;100.00;97340.94;5076669;28;19920;-50
2022/04/14 05:10:58;;;;;;;;;;;11.10;99.90;;;10.76;100.00;97334.72;5074098;28;19955;-49
2022/04/14 05:13:23;;;;;;;;;;;11.20;99.90;;;10.95;100.00;97347.22;5077792;28;19969;-50
2022/04/14 05:15:49;;;;;;;;;;;11.20;99.90;;;10.95;100.00;97340.16;5071086;28;20191;-48
2022/04/14 05:18:14;;;;;;;;;;;11.30;99.90;;;10.98;100.00;97347.09;5077734;28;20472;-50
2022/04/14 05:20:42;;;;;;;;;;;11.30;99.90;;;11.03;100.00;97347.78;5069322;28;20450;-49
2022/04/14 05:23:08;;;;;;;;;;;11.40;99.90;;;11.10;100.00;97354.53;5076653;28;19927;-48
2022/04/14 05:25:34;;;;;;;;;;;11.40;99.90;;;11.17;100.00;97355.16;5075512;28;20011;-50
2022/04/14 05:28:00;;;;;;;;;;;11.50;99.90;;;11.25;100.00;97353.03;5074825;28;20417;-50
2022/04/14 05:30:25;;;;;;;;;;;11.60;99.90;;;11.30;100.00;97364.28;5077072;28;20347;-46
2022/04/14 05:32:51;;;;;;;;;;;11.60;99.90;;;11.34;100.00;97354.44;5070472;28;19923;-49
2022/04/14 05:35:17;;;;;;;;;;;11.70;99.90;;;11.44;100.00;97363.72;5077225;28;19924;-46
2022/04/14 05:37:42;;;;;;;;;;;11.80;99.90;;;11.34;100.00;97333.34;5074471;28;19985;-50
2022/04/14 05:40:08;;;;;;;;;;;11.80;99.90;;;11.54;100.00;97361.56;5074729;28;19968;-49
2022/04/14 05:42:34;;;;;;;;;;;11.90;99.90;;;11.62;100.00;97373.53;5071585;28;20367;-51
2022/04/14 05:45:00;;;;;;;;;;;12.00;99.90;;;11.67;100.00;97375.13;5079872;28;20075;-50
2022/04/14 05:47:26;;;;;;;;;;;12.00;99.90;;;11.75;100.00;97370.38;5077116;28;19923;-47
2022/04/14 05:49:54;;;;;;;;;;;12.10;99.90;;;11.77;100.00;97373.81;5075669;28;22293;-46
2022/04/14 05:52:20;;;;;;;;;;;12.10;99.90;;;11.82;100.00;97380.59;5075104;28;19928;-51
2022/04/14 05:54:46;;;;;;;;;;;12.10;99.90;;;11.86;100.00;97378.69;5076955;28;19931;-51
2022/04/14 05:57:13;;;;;;;;;;;12.20;99.90;;;11.91;100.00;97383.84;5075826;28;19963;-51
2022/04/14 05:59:39;;;;;;;;;;;12.20;99.90;;;11.94;100.00;97379.28;5071200;28;19924;-47
2022/04/14 06:02:04;;;;;;;;;;;12.20;99.90;;;11.98;100.00;97382.63;5071332;28;20006;-47
2022/04/14 06:04:30;;;;;;;;;;;12.30;99.90;;;11.96;100.00;97392.44;5075055;28;19931;-48
2022/04/14 06:06:56;;;;;;;;;;;12.30;99.90;;;11.97;100.00;97381.78;5072070;28;20460;-48
2022/04/14 06:09:21;;;;;;;;;;;12.30;99.90;;;11.86;100.00;97354.91;5074949;28;19943;-49
2022/04/14 06:11:47;;;;;;;;;;;12.30;99.90;;;12.08;100.00;97389.25;5072476;28;20165;-48
2022/04/14 06:14:12;;;;;;;;;;;12.40;99.90;;;12.10;100.00;97391.84;5074359;28;19920;-48
2022/04/14 06:16:38;;;;;;;;;;;12.40;99.90;;;12.12;100.00;97392.63;5068012;28;20039;-47
2022/04/14 06:19:04;;;;;;;;;;;12.40;99.90;;;12.10;100.00;97400.63;5072832;28;20390;-46
2022/04/14 06:21:29;;;;;;;;;;;12.50;99.90;;;12.14;100.00;97396.06;5074413;28;19928;-48
2022/04/14 06:23:56;;;;;;;;;;;12.50;99.90;;;12.20;100.00;97401.06;5077350;28;19995;-50
2022/04/14 06:26:22;;;;;;;;;;;12.50;99.90;;;12.26;100.00;97398.19;5076109;28;20403;-49
2022/04/14 06:28:47;;;;;;;;;;;12.60;99.90;;;12.34;100.00;97401.31;5068880;28;20561;-45
2022/04/14 06:31:14;;;;;;;;;;;12.60;99.90;;;12.39;100.00;97407.28;5068775;28;19924;-53
2022/04/14 06:33:39;;;;;;;;;;;12.70;99.90;;;12.43;100.00;97393.94;5064648;28;20657;-46
2022/04/14 06:36:05;;;;;;;;;;;12.80;99.90;;;12.55;100.00;97411.91;5075192;28;19969;-47
2022/04/14 06:38:31;;;;;;;;;;;12.90;99.90;;;12.62;100.00;97409.84;5069609;28;20054;-46
2022/04/14 06:40:56;;;;;;;;;;;13.00;99.90;;;12.69;100.00;97400.69;5069370;28;19924;-47
2022/04/14 06:43:24;;;;;;;;;;;13.00;99.90;;;12.78;100.00;97403.78;5072744;28;19923;-47
2022/04/14 06:45:50;;;;;;;;;;;13.10;99.90;;;12.88;100.00;97403.34;5069358;28;19981;-49
2022/04/14 06:48:16;;;;;;;;;;;13.20;99.90;;;12.88;100.00;97395.41;5067882;28;19932;-48
2022/04/14 06:50:42;;;;;;;;;;;13.30;99.90;;;13.01;100.00;97408.94;5069852;28;20935;-48
2022/04/14 06:53:08;;;;;;;;;;;13.40;99.90;;;13.11;100.00;97408.44;5069921;28;19924;-48
2022/04/14 06:55:35;;;;;;;;;;;13.50;99.90;;;13.21;100.00;97405.34;5067026;28;20223;-49
2022/04/14 06:58:01;;;;;;;;;;;13.50;99.90;;;13.32;100.00;97408.38;5071302;28;19961;-49
2022/04/14 07:00:28;;;;;;;;;;;13.60;99.90;;;13.43;100.00;97410.53;5069953;28;19924;-49
2022/04/14 07:02:55;;;;;;;;;;;13.70;99.90;;;13.58;100.00;97414.22;5071767;28;19916;-50
2022/04/14 07:05:21;;;;;;;;;;;13.90;99.90;;;13.69;100.00;97417.19;5068891;28;20424;-47
2022/04/14 07:07:46;;;;;;;;;;;14.00;99.90;;;13.72;100.00;97403.78;5072643;28;19920;-47
2022/04/14 07:10:12;;;;;;;;;;;14.10;99.90;;;13.86;100.00;97416.38;5073056;28;19924;-45
2022/04/14 07:12:39;;;;;;;;;;;14.20;99.90;;;13.94;100.00;97417.69;5066504;28;19927;-48
2022/04/14 07:15:05;;;;;;;;;;;14.30;99.90;;;13.96;100.00;97424.69;5067704;28;20206;-45
2022/04/14 07:17:32;;;;;;;;;;;14.30;99.90;;;13.98;100.00;97428.13;5062350;28;20500;-44
2022/04/14 07:19:58;;;;;;;;;;;14.40;99.90;;;14.08;100.00;97426.75;5070236;28;19966;-44
2022/04/14 07:22:24;;;;;;;;;;;14.40;99.90;;;14.17;100.00;97428.91;5071191;28;19971;-47
2022/04/14 07:24:50;;;;;;;;;;;14.50;99.90;;;14.19;100.00;97418.25;5064415;28;20291;-45
2022/04/14 07:27:18;;;;;;;;;;;14.60;99.90;;;14.43;100.00;97424.09;5081475;23;19932;-57
2022/04/14 07:29:46;;;;;;;;;;;14.70;99.90;;;14.39;97.66;97423.41;5041113;28;20002;-57
2022/04/14 07:32:12;;;;;;;;;;;14.80;99.90;;;14.41;98.35;97426.81;5048242;28;19925;-57
2022/04/14 07:34:38;;;;;;;;;;;14.80;99.90;;;14.45;98.57;97428.38;5045874;28;19924;-56
2022/04/14 07:37:04;;;;;;;;;;;14.80;99.90;;;14.55;97.99;97430.53;5042374;28;20320;-57
2022/04/14 07:39:29;;;;;;;;;;;14.90;99.90;;;14.60;98.18;97433.84;5049878;28;20388;-56
2022/04/14 07:41:55;;;;;;;;;;;15.00;99.90;;;14.76;96.22;97433.88;5050562;28;19924;-57
2022/04/14 07:44:20;;;;;;;;;;;15.10;99.90;;;14.97;96.21;97438.03;5049793;28;19920;-57
2022/04/14 07:46:46;;;;;;;;;;;15.20;99.90;;;15.10;95.34;97434.72;5044848;28;19977;-57
2022/04/14 07:49:12;;;;;;;;;;;15.40;99.90;;;15.31;95.27;97452.16;5048409;28;20527;-57
2022/04/14 07:51:37;;;;;;;;;;;15.60;99.90;;;15.58;93.08;97456.88;5046341;28;20543;-58
2022/04/14 07:54:03;;;;;;;;;;;15.80;99.90;;;15.63;91.32;97450.34;5044314;28;19921;-57
2022/04/14 07:56:29;;;;;;;;;;;16.00;99.90;;;15.73;91.90;97453.31;5037685;28;19981;-57
2022/04/14 07:58:54;;;;;;;;;;;16.00;99.90;;;15.90;90.36;97454.19;5035380;28;19931;-57
2022/04/14 08:01:20;;;;;;;;;;;16.10;99.90;;;16.10;89.00;97453.91;5036621;28;19993;-57
2022/04/14 08:03:46;;;;;;;;;;;16.30;99.90;;;16.21;87.47;97462.09;5036197;28;20585;-58
2022/04/14 08:06:15;;;;;;;;;;;16.50;99.90;;;16.26;86.88;97460.97;5039192;28;19935;-55
2022/04/14 08:08:41;;;;;;;;;;;16.50;99.90;;;16.19;86.12;97461.34;5046077;28;19924;-48
2022/04/14 08:11:08;;;;;;;;;;;16.50;99.90;;;16.26;84.92;97464.50;5049729;28;19925;-56
2022/04/14 08:13:37;;;;;;;;;;;16.50;99.90;;;16.21;86.20;97459.44;5043444;28;19924;-57
2022/04/14 08:16:09;;;;;;;;;;;16.50;99.90;;;16.22;85.90;97463.84;5035231;28;19926;-56
2022/04/14 08:18:38;;;;;;;;;;;16.50;99.90;;;16.23;86.30;97470.00;5038387;28;19921;-56
2022/04/14 08:21:05;;;;;;;;;;;16.60;99.90;;;16.20;85.90;97471.06;5041993;28;19951;-56
2022/04/14 08:23:31;;;;;;;;;;;16.50;99.90;;;16.26;86.49;97463.63;5039532;28;19995;-57
2022/04/14 08:25:57;;;;;;;;;;;16.50;99.90;;;16.40;85.52;97469.88;5039723;28;20653;-57
2022/04/14 08:28:22;;;;;;;;;;;16.60;99.90;;;16.31;84.27;97469.53;5045411;28;20351;-57
2022/04/14 08:30:48;;;;;;;;;;;16.60;99.90;;;16.23;84.16;97475.31;5050412;28;19920;-57
2022/04/14 08:33:16;;;;;;;;;;;16.60;99.90;;;16.12;86.04;97467.97;5046131;28;19917;-57
2022/04/14 08:35:42;;;;;;;;;;;16.50;99.90;;;16.18;84.92;97464.94;5049057;28;19967;-57
2022/04/14 08:38:08;;;;;;;;;;;16.50;99.90;;;16.31;86.30;97470.44;5038456;28;20433;-57
2022/04/14 08:40:35;;;;;;;;;;;16.50;99.90;;;16.38;85.74;97466.44;5044322;28;19955;-57
2022/04/14 08:43:06;;;;;;;;;;;16.60;99.90;;;16.46;85.80;97468.66;5053831;28;20310;-58
2022/04/14 08:45:34;;;;;;;;;;;16.70;99.90;;;16.53;84.28;97469.16;5049883;28;19983;-58
2022/04/14 08:48:00;;;;;;;;;;;16.80;99.90;;;16.72;83.98;97467.06;5049126;28;20500;-58
2022/04/14 08:50:27;;;;;;;;;;;16.90;99.90;;;16.78;82.72;97457.88;5050122;28;19928;-58
2022/04/14 08:52:53;;;;;;;;;;;17.00;99.90;;;16.80;81.47;97469.28;5040067;28;20108;-58
2022/04/14 08:55:19;;;;;;;;;;;17.00;99.90;;;16.90;80.48;97466.94;5046452;28;19931;-57
2022/04/14 08:57:44;;;;;;;;;;;17.10;99.90;;;16.79;79.34;97468.41;5044247;28;19917;-56
2022/04/14 09:00:16;;;;;;;;;;;17.10;99.90;;;16.77;81.10;97464.13;5054858;28;19925;-57
2022/04/14 09:02:45;;;;;;;;;;;17.00;99.90;;;16.83;81.35;97473.56;5054919;28;19925;-58
2022/04/14 09:05:17;;;;;;;;;;;17.10;99.90;;;16.82;81.06;97474.50;5045645;28;20242;-57
2022/04/14 09:07:50;;;;;;;;;;;17.10;99.90;;;16.89;80.99;97473.22;5046605;28;19916;-58
2022/04/14 09:10:17;;;;;;;;;;;17.10;99.90;;;16.94;79.55;97471.09;5042797;28;19931;-57
2022/04/14 09:12:42;;;;;;;;;;;17.20;99.90;;;17.04;79.16;97472.25;5047834;28;19920;-57
2022/04/14 09:15:09;;;;;;;;;;;17.20;99.90;;;16.98;77.71;97473.50;5045812;28;19928;-58
2022/04/14 09:17:35;;;;;;;;;;;17.30;99.90;;;16.83;78.16;97471.78;5046631;28;19920;-58
2022/04/14 09:20:27;;;;;;;;;;;17.20;99.90;;;16.73;78.84;97479.44;5047923;28;20461;-60
2022/04/14 09:23:20;;;;;;;;;;;17.10;99.90;;;16.69;78.80;97459.28;5041195;28;19925;-58
2022/04/14 09:25:50;;;;;;;;;;;17.00;99.90;;;16.83;78.75;97478.88;5047676;28;20195;-57
2022/04/14 09:28:20;;;;;;;;;;;17.10;99.90;;;16.91;77.98;97476.66;5046883;28;21740;-57
2022/04/14 09:31:02;;;;;;;;;;;17.10;99.90;;;16.87;78.70;97480.44;5051781;28;20256;-57
2022/04/14 09:33:28;;;;;;;;;;;17.20;99.90;;;16.93;79.23;97483.59;5052948;28;19943;-58
2022/04/14 09:36:13;;;;;;;;;;;17.20;99.90;;;17.01;79.47;97487.56;5053327;28;19928;-57
2022/04/14 09:39:00;;;;;;;;;;;17.20;99.90;;;17.12;78.01;97480.66;5047708;28;19920;-57
2022/04/14 09:41:39;;;;;;;;;;;17.40;99.90;;;17.26;77.78;97485.09;5056196;28;19927;-57
2022/04/14 09:44:12;;;;;;;;;;;17.50;99.90;;;17.16;79.00;97483.97;5050001;28;19932;-58
2022/04/14 09:46:42;;;;;;;;;;;17.50;99.90;;;17.36;80.39;97488.91;5053456;28;19924;-58
2022/04/14 09:49:09;;;;;;;;;;;17.50;99.90;;;17.25;79.80;97477.22;5054853;28;19920;-58
2022/04/14 09:51:40;;;;;;;;;;;17.60;99.90;;;17.14;78.51;97484.06;5046810;28;19917;-57
2022/04/14 09:54:19;;;;;;;;;;;17.50;99.90;;;17.18;79.85;97484.75;5064141;28;19928;-58
2022/04/14 09:56:51;;;;;;;;;;;17.40;99.90;;;17.23;80.57;97479.97;5047974;28;19936;-57
2022/04/14 09:59:22;;;;;;;;;;;17.50;99.90;;;17.33;80.02;97472.25;5042961;28;19925;-57
2022/04/14 10:01:48;;;;;;;;;;;17.60;99.90;;;17.54;80.14;97470.03;5044882;28;19925;-57
2022/04/14 10:04:31;;;;;;;;;;;17.70;99.90;;;17.73;78.64;97469.72;5053352;28;19916;-57
2022/04/14 10:07:11;;;;;;;;;;;17.90;99.90;;;17.84;77.92;97466.34;5047239;28;19924;-57
2022/04/14 10:09:40;;;;;;;;;;;18.10;99.90;;;18.01;77.75;97466.09;5018822;28;19931;-57
2022/04/14 10:12:26;;;;;;;;;;;18.20;99.90;;;18.15;75.08;97461.69;5052107;28;19925;-57
2022/04/14 10:15:03;;;;;;;;;;;18.30;99.90;;;18.23;74.73;97457.56;5048123;28;19931;-57
2022/04/14 10:17:38;;;;;;;;;;;18.40;99.90;;;18.24;74.50;97459.25;5044955;28;19970;-57
2022/04/14 10:20:12;;;;;;;;;;;18.50;99.90;;;18.22;74.11;97457.66;5049132;28;20066;-57
2022/04/14 10:22:38;;;;;;;;;;;18.50;99.90;;;18.23;74.93;97460.22;5048828;28;19920;-58
2022/04/14 10:25:04;;;;;;;;;;;18.40;99.90;;;18.17;73.85;97451.75;5055493;28;20792;-57
2022/04/14 10:27:31;;;;;;;;;;;18.50;99.90;;;18.29;73.90;97459.78;5066926;28;19924;-57
2022/04/14 10:29:57;;;;;;;;;;;18.50;99.90;;;18.40;71.23;97450.22;5052941;28;20019;-57
2022/04/14 10:32:25;;;;;;;;;;;18.50;99.90;;;18.42;72.16;97467.81;5053982;28;20330;-57
2022/04/14 10:34:50;;;;;;;;;;;18.60;99.90;;;18.34;71.61;97461.28;5051127;28;19960;-57
2022/04/14 10:37:32;;;;;;;;;;;18.60;99.90;;;18.49;72.30;97455.78;5053478;28;20427;-57
2022/04/14 10:39:58;;;;;;;;;;;18.70;99.90;;;18.58;71.03;97469.47;5047510;28;19932;-57
2022/04/14 10:42:25;;;;;;;;;;;18.70;99.90;;;18.63;69.34;97462.00;5052008;28;19962;-57
2022/04/14 10:44:52;;;;;;;;;;;18.80;99.90;;;18.58;70.05;97464.13;5049272;28;19924;-57
2022/04/14 10:47:53;;;;;;;;;;;18.80;99.90;;;18.55;71.00;97461.66;5043909;28;19921;-56
2022/04/14 10:50:32;;;;;;;;;;;18.80;99.90;;;18.60;70.22;97451.50;5045707;28;19952;-50
2022/04/14 10:53:15;;;;;;;;;;;18.80;99.90;;;18.73;70.42;97448.84;5051306;28;19924;-57
2022/04/14 10:55:45;;;;;;;;;;;18.90;99.90;;;18.80;68.14;97450.97;5056153;28;19925;-57
2022/04/14 10:58:26;;;;;;;;;;;19.00;99.90;;;18.83;69.36;97449.97;5055288;28;19925;-56
2022/04/14 11:00:52;;;;;;;;;;;19.00;99.90;;;18.69;68.64;97456.22;5052334;28;19924;-56
2022/04/14 11:03:18;;;;;;;;;;;19.00;99.90;;;18.74;68.34;97451.41;5054185;28;19928;-57
2022/04/14 11:05:49;;;;;;;;;;;19.00;99.90;;;18.93;67.05;97453.69;5047040;28;19920;-56
2022/04/14 11:08:24;;;;;;;;;;;19.10;99.90;;;19.00;65.43;97459.47;5050945;28;20020;-57
2022/04/14 11:11:09;;;;;;;;;;;19.20;99.90;;;19.13;66.19;97468.34;5041230;28;19921;-57
2022/04/14 11:13:50;;;;;;;;;;;19.20;99.90;;;19.02;66.02;97466.44;5038782;28;19932;-54
2022/04/14 11:16:37;;;;;;;;;;;19.20;99.90;;;19.08;63.71;97463.31;5044376;28;20532;-57